»·PEaware :: N9964L KFUL-KRNM

N9964L :: KFUL-KRNM

FLIGHT INFORMATION

Flight Status: Arrived
Operator: Privately registered:
United States
More flights under this callsign
Pilot: Mike L. (500)
Aircraft: CESSNA 172 SKYHAWK
(C172)
More flights by this aircraft type
Origin: KFUL Fullerton Mun
United States
Destination: KRNM Ramona
United States
More flights between these airports :: More routes between these airports
Route: +
File this flight plan on PilotEdge
Remarks:
Altitude:
(Current/Filed)
5,500ft
Speed:
(Current/Filed)
0kts
Departed: 11-Oct-20 02:52 PM
Arrived: 11-Oct-20 03:35 PM
Distance/Time
Traveled:
73nm/0:43
Distance/Time
To Go:
Arrived

Flight Plot

Page will automatically refresh every two minutes.

Flight plan parsing failed; only flown route is shown


Map Options




Map Legend


Flown Route
Filed Route
Departure Airport
Arrival Airport
Navaid (VOR, NDB)
Fix

Horizontal Profiles

Position Reports

Time Latitude Longitude Heading Altitude Ground
Speed
11-Oct-20 14:44 33.871097 -117.977845 248 97ft 0kts
11-Oct-20 14:45 33.871097 -117.977845 248 97ft 0kts
11-Oct-20 14:46 33.871345 -117.978065 349 96ft 7kts
11-Oct-20 14:47 33.872305 -117.976178 77 102ft 10kts
11-Oct-20 14:48 33.872624 -117.974820 10 103ft 0kts
11-Oct-20 14:49 33.872624 -117.974820 10 103ft 0kts
11-Oct-20 14:50 33.872802 -117.975782 256 101ft 16kts
11-Oct-20 14:51 33.865275 -117.997985 207 451ft 99kts
11-Oct-20 14:52 33.851279 -117.975130 94 1065ft 104kts
11-Oct-20 14:53 33.841045 -117.941360 126 1620ft 109kts
11-Oct-20 14:54 33.817494 -117.916062 137 2028ft 118kts
11-Oct-20 14:55 33.795509 -117.887841 124 2475ft 114kts
11-Oct-20 14:56 33.774527 -117.860788 133 2961ft 112kts
11-Oct-20 14:57 33.753164 -117.833411 131 3433ft 112kts
11-Oct-20 14:58 33.732892 -117.803555 136 3857ft 114kts
11-Oct-20 14:59 33.711848 -117.774799 123 4282ft 117kts
11-Oct-20 15:00 33.693032 -117.744797 125 4766ft 112kts
11-Oct-20 15:01 33.670590 -117.719174 144 5193ft 111kts
11-Oct-20 15:02 33.645476 -117.697009 140 5512ft 117kts
11-Oct-20 15:03 33.615724 -117.676997 148 5573ft 125kts
11-Oct-20 15:04 33.585616 -117.654980 148 5515ft 129kts
11-Oct-20 15:05 33.554312 -117.634723 147 5530ft 126kts
11-Oct-20 15:06 33.523424 -117.614171 152 5533ft 126kts
11-Oct-20 15:07 33.492425 -117.592794 148 5474ft 131kts
11-Oct-20 15:09 33.464203 -117.567872 137 5536ft 126kts
11-Oct-20 15:10 33.433876 -117.551223 145 5531ft 126kts
11-Oct-20 15:11 33.403394 -117.530031 149 5532ft 127kts
11-Oct-20 15:12 33.372662 -117.508828 149 5543ft 128kts
11-Oct-20 15:13 33.341824 -117.487471 149 5510ft 128kts
11-Oct-20 15:14 33.311408 -117.465807 147 5507ft 127kts
11-Oct-20 15:15 33.282721 -117.441058 133 5523ft 126kts
11-Oct-20 15:16 33.254292 -117.416609 151 5543ft 126kts
11-Oct-20 15:17 33.226163 -117.393222 112 5319ft 122kts
11-Oct-20 15:18 33.215009 -117.354803 111 4810ft 123kts
11-Oct-20 15:19 33.200963 -117.317570 117 4308ft 122kts
11-Oct-20 15:20 33.185674 -117.281348 109 3843ft 122kts
11-Oct-20 15:21 33.168993 -117.245741 116 3524ft 126kts
11-Oct-20 15:22 33.153408 -117.207570 114 3533ft 128kts
11-Oct-20 15:23 33.139342 -117.169648 116 3093ft 124kts
11-Oct-20 15:24 33.124016 -117.133136 116 2620ft 122kts
11-Oct-20 15:25 33.107350 -117.096576 114 2549ft 127kts
11-Oct-20 15:25 33.094591 -117.064658 115 2553ft 127kts
11-Oct-20 15:27 33.076886 -117.019964 118 2527ft 127kts
11-Oct-20 15:27 33.063962 -116.988364 113 2528ft 128kts
11-Oct-20 15:29 33.048715 -116.942218 109 2510ft 129kts
11-Oct-20 15:29 33.036833 -116.911275 120 2512ft 115kts
11-Oct-20 15:30 33.020418 -116.879239 127 2471ft 112kts
11-Oct-20 15:31 33.023964 -116.858497 328 2382ft 80kts
11-Oct-20 15:32 33.034117 -116.883893 282 1913ft 79kts
11-Oct-20 15:33 33.038154 -116.908532 280 1407ft 60kts
11-Oct-20 15:34 33.039108 -116.912444 8 1395ft 0kts

Navigation Log

Ident Type
Flight plan parsing failed, navigation log unavailable